sensor_id;sensor_type;location;lat;lon;timestamp;pressure;altitude;pressure_sealevel;temperature;humidity
80682;BME280;70045;40.200;44.582;2024-02-21T00:00:08;86633.56;;;5.19;45.86
80682;BME280;70045;40.200;44.582;2024-02-21T00:02:34;86645.69;;;5.15;45.87
80682;BME280;70045;40.200;44.582;2024-02-21T00:04:59;86645.31;;;5.13;45.78
80682;BME280;70045;40.200;44.582;2024-02-21T00:07:24;86641.97;;;5.08;46.30
80682;BME280;70045;40.200;44.582;2024-02-21T00:09:50;86636.47;;;5.06;46.70
80682;BME280;70045;40.200;44.582;2024-02-21T00:12:19;86635.72;;;5.02;46.14
80682;BME280;70045;40.200;44.582;2024-02-21T00:14:45;86638.66;;;5.04;46.31
80682;BME280;70045;40.200;44.582;2024-02-21T00:17:10;86632.44;;;5.05;45.88
80682;BME280;70045;40.200;44.582;2024-02-21T00:19:35;86635.75;;;5.13;45.78
80682;BME280;70045;40.200;44.582;2024-02-21T00:22:01;86635.78;;;5.17;45.46
80682;BME280;70045;40.200;44.582;2024-02-21T00:24:32;86637.63;;;5.20;44.95
80682;BME280;70045;40.200;44.582;2024-02-21T00:26:57;86635.81;;;5.27;44.70
80682;BME280;70045;40.200;44.582;2024-02-21T00:29:22;86636.56;;;5.32;44.72
80682;BME280;70045;40.200;44.582;2024-02-21T00:31:49;86638.78;;;5.33;44.84
80682;BME280;70045;40.200;44.582;2024-02-21T00:34:14;86641.34;;;5.33;44.40
80682;BME280;70045;40.200;44.582;2024-02-21T00:36:43;86632.16;;;5.28;44.10
80682;BME280;70045;40.200;44.582;2024-02-21T00:39:08;86638.81;;;5.37;43.65
80682;BME280;70045;40.200;44.582;2024-02-21T00:41:34;86633.66;;;5.37;43.34
80682;BME280;70045;40.200;44.582;2024-02-21T00:43:59;86632.53;;;5.38;42.31
80682;BME280;70045;40.200;44.582;2024-02-21T00:46:24;86630.38;;;5.43;42.50
80682;BME280;70045;40.200;44.582;2024-02-21T00:48:53;86622.63;;;5.40;41.58
80682;BME280;70045;40.200;44.582;2024-02-21T00:51:19;86635.91;;;5.49;41.82
80682;BME280;70045;40.200;44.582;2024-02-21T00:53:44;86635.53;;;5.51;40.94
80682;BME280;70045;40.200;44.582;2024-02-21T00:56:10;86639.59;;;5.59;40.19
80682;BME280;70045;40.200;44.582;2024-02-21T00:58:35;86632.22;;;5.54;40.23
80682;BME280;70045;40.200;44.582;2024-02-21T01:01:04;86637.75;;;5.56;40.46
80682;BME280;70045;40.200;44.582;2024-02-21T01:03:30;86637.38;;;5.54;41.15
80682;BME280;70045;40.200;44.582;2024-02-21T01:05:55;86647.66;;;5.54;41.15
80682;BME280;70045;40.200;44.582;2024-02-21T01:08:20;86642.50;;;5.54;40.30
80682;BME280;70045;40.200;44.582;2024-02-21T01:10:46;86648.78;;;5.53;40.65
80682;BME280;70045;40.200;44.582;2024-02-21T01:13:14;86646.94;;;5.57;41.48
80682;BME280;70045;40.200;44.582;2024-02-21T01:15:39;86648.41;;;5.58;39.99
80682;BME280;70045;40.200;44.582;2024-02-21T01:18:05;86646.22;;;5.60;40.96
80682;BME280;70045;40.200;44.582;2024-02-21T01:20:30;86649.88;;;5.59;41.14
80682;BME280;70045;40.200;44.582;2024-02-21T01:22:56;86653.94;;;5.60;41.35
80682;BME280;70045;40.200;44.582;2024-02-21T01:25:24;86646.56;;;5.55;40.59
80682;BME280;70045;40.200;44.582;2024-02-21T01:27:49;86652.06;;;5.53;40.38
80682;BME280;70045;40.200;44.582;2024-02-21T01:30:15;86648.03;;;5.52;40.54
80682;BME280;70045;40.200;44.582;2024-02-21T01:32:40;86658.69;;;5.54;40.98
80682;BME280;70045;40.200;44.582;2024-02-21T01:35:06;86661.66;;;5.63;40.92
80682;BME280;70045;40.200;44.582;2024-02-21T01:37:35;86660.94;;;5.66;39.57
80682;BME280;70045;40.200;44.582;2024-02-21T01:40:00;86658.72;;;5.65;40.66
80682;BME280;70045;40.200;44.582;2024-02-21T01:42:26;86666.44;;;5.65;40.60
80682;BME280;70045;40.200;44.582;2024-02-21T01:44:51;86664.59;;;5.62;40.74
80682;BME280;70045;40.200;44.582;2024-02-21T01:47:17;86664.94;;;5.60;41.80
80682;BME280;70045;40.200;44.582;2024-02-21T01:49:52;86665.34;;;5.62;41.40
80682;BME280;70045;40.200;44.582;2024-02-21T01:52:18;86664.22;;;5.60;41.59
80682;BME280;70045;40.200;44.582;2024-02-21T01:54:44;86669.34;;;5.53;41.92
80682;BME280;70045;40.200;44.582;2024-02-21T01:57:11;86664.19;;;5.45;42.17
80682;BME280;70045;40.200;44.582;2024-02-21T01:59:36;86661.19;;;5.40;42.06
80682;BME280;70045;40.200;44.582;2024-02-21T02:02:05;86662.31;;;5.39;41.45
80682;BME280;70045;40.200;44.582;2024-02-21T02:04:30;86666.72;;;5.38;42.40
80682;BME280;70045;40.200;44.582;2024-02-21T02:06:56;86664.16;;;5.42;41.68
80682;BME280;70045;40.200;44.582;2024-02-21T02:09:22;86666.75;;;5.45;42.21
80682;BME280;70045;40.200;44.582;2024-02-21T02:11:48;86674.09;;;5.43;41.60
80682;BME280;70045;40.200;44.582;2024-02-21T02:14:17;86662.31;;;5.39;42.36
80682;BME280;70045;40.200;44.582;2024-02-21T02:16:46;86672.59;;;5.42;41.82
80682;BME280;70045;40.200;44.582;2024-02-21T02:19:12;86669.66;;;5.40;41.80
80682;BME280;70045;40.200;44.582;2024-02-21T02:21:39;86668.19;;;5.39;42.34
80682;BME280;70045;40.200;44.582;2024-02-21T02:24:07;86663.06;;;5.46;42.56
80682;BME280;70045;40.200;44.582;2024-02-21T02:26:40;86665.63;;;5.46;42.99
80682;BME280;70045;40.200;44.582;2024-02-21T02:29:05;86660.91;;;5.52;43.33
80682;BME280;70045;40.200;44.582;2024-02-21T02:37:50;86676.38;;;5.70;41.57
80682;BME280;70045;40.200;44.582;2024-02-21T02:40:16;86671.94;;;5.67;42.32
80682;BME280;70045;40.200;44.582;2024-02-21T02:42:42;86677.81;;;5.64;42.79
80682;BME280;70045;40.200;44.582;2024-02-21T02:45:07;86680.72;;;5.59;43.34
80682;BME280;70045;40.200;44.582;2024-02-21T02:47:33;86684.44;;;5.65;43.42
80682;BME280;70045;40.200;44.582;2024-02-21T02:50:05;86672.72;;;5.71;42.43
80682;BME280;70045;40.200;44.582;2024-02-21T02:52:30;86676.38;;;5.74;42.07
80682;BME280;70045;40.200;44.582;2024-02-21T02:54:55;86677.09;;;5.74;41.64
80682;BME280;70045;40.200;44.582;2024-02-21T02:57:21;86671.25;;;5.74;41.76
80682;BME280;70045;40.200;44.582;2024-02-21T02:59:50;86669.03;;;5.83;41.57
80682;BME280;70045;40.200;44.582;2024-02-21T03:02:21;86680.06;;;5.76;42.96
80682;BME280;70045;40.200;44.582;2024-02-21T03:04:47;86672.66;;;5.64;43.71
80682;BME280;70045;40.200;44.582;2024-02-21T03:07:14;86675.59;;;5.59;43.96
80682;BME280;70045;40.200;44.582;2024-02-21T03:09:39;86681.09;;;5.54;44.39
80682;BME280;70045;40.200;44.582;2024-02-21T03:12:06;86683.66;;;5.50;45.57
80682;BME280;70045;40.200;44.582;2024-02-21T03:14:35;86693.22;;;5.57;44.62
80682;BME280;70045;40.200;44.582;2024-02-21T03:17:01;86689.56;;;5.54;44.77
80682;BME280;70045;40.200;44.582;2024-02-21T03:19:27;86682.16;;;5.42;45.48
80682;BME280;70045;40.200;44.582;2024-02-21T03:21:53;86687.31;;;5.45;44.61
80682;BME280;70045;40.200;44.582;2024-02-21T03:24:19;86681.41;;;5.41;45.07
80682;BME280;70045;40.200;44.582;2024-02-21T03:26:50;86677.72;;;5.35;44.79
80682;BME280;70045;40.200;44.582;2024-02-21T03:29:16;86680.63;;;5.30;44.80
80682;BME280;70045;40.200;44.582;2024-02-21T03:31:42;86683.94;;;5.31;44.75
80682;BME280;70045;40.200;44.582;2024-02-21T03:34:08;86682.50;;;5.33;45.29
80682;BME280;70045;40.200;44.582;2024-02-21T03:36:33;86685.78;;;5.34;45.73
80682;BME280;70045;40.200;44.582;2024-02-21T03:39:02;86692.44;;;5.38;45.13
80682;BME280;70045;40.200;44.582;2024-02-21T03:41:27;86698.31;;;5.39;44.95
80682;BME280;70045;40.200;44.582;2024-02-21T03:43:53;86697.56;;;5.35;45.39
80682;BME280;70045;40.200;44.582;2024-02-21T03:46:18;86695.72;;;5.35;45.71
80682;BME280;70045;40.200;44.582;2024-02-21T03:48:43;86693.13;;;5.32;45.99
80682;BME280;70045;40.200;44.582;2024-02-21T03:51:13;86697.91;;;5.33;46.08
80682;BME280;70045;40.200;44.582;2024-02-21T03:53:38;86692.78;;;5.37;45.11
80682;BME280;70045;40.200;44.582;2024-02-21T03:56:04;86705.63;;;5.30;44.79
80682;BME280;70045;40.200;44.582;2024-02-21T03:58:30;86695.31;;;5.26;46.00
80682;BME280;70045;40.200;44.582;2024-02-21T04:00:56;86692.38;;;5.27;45.62
80682;BME280;70045;40.200;44.582;2024-02-21T04:03:25;86701.22;;;5.34;45.93
80682;BME280;70045;40.200;44.582;2024-02-21T04:05:50;86701.94;;;5.34;46.14
80682;BME280;70045;40.200;44.582;2024-02-21T04:08:16;86704.53;;;5.38;45.46
80682;BME280;70045;40.200;44.582;2024-02-21T04:10:41;86713.75;;;5.46;45.61
80682;BME280;70045;40.200;44.582;2024-02-21T04:13:07;86714.13;;;5.48;44.36
80682;BME280;70045;40.200;44.582;2024-02-21T04:15:35;86706.78;;;5.46;44.57
80682;BME280;70045;40.200;44.582;2024-02-21T04:18:01;86714.50;;;5.46;45.37
80682;BME280;70045;40.200;44.582;2024-02-21T04:20:26;86718.91;;;5.50;45.49
80682;BME280;70045;40.200;44.582;2024-02-21T04:22:52;86708.63;;;5.50;46.07
80682;BME280;70045;40.200;44.582;2024-02-21T04:25:17;86717.81;;;5.51;44.42
80682;BME280;70045;40.200;44.582;2024-02-21T04:27:46;86720.41;;;5.51;45.47
80682;BME280;70045;40.200;44.582;2024-02-21T04:30:12;86717.47;;;5.56;43.92
80682;BME280;70045;40.200;44.582;2024-02-21T04:32:37;86721.16;;;5.62;43.56
80682;BME280;70045;40.200;44.582;2024-02-21T04:35:04;86721.16;;;5.62;43.82
80682;BME280;70045;40.200;44.582;2024-02-21T04:37:29;86723.38;;;5.60;44.56
80682;BME280;70045;40.200;44.582;2024-02-21T04:39:58;86726.31;;;5.65;43.62
80682;BME280;70045;40.200;44.582;2024-02-21T04:42:24;86730.75;;;5.72;42.69
80682;BME280;70045;40.200;44.582;2024-02-21T04:44:49;86732.63;;;5.75;42.99
80682;BME280;70045;40.200;44.582;2024-02-21T04:47:14;86742.56;;;5.80;44.07
80682;BME280;70045;40.200;44.582;2024-02-21T04:49:40;86741.19;;;5.97;42.69
80682;BME280;70045;40.200;44.582;2024-02-21T04:52:09;86752.59;;;6.07;41.55
80682;BME280;70045;40.200;44.582;2024-02-21T04:54:34;86749.31;;;6.17;41.85
80682;BME280;70045;40.200;44.582;2024-02-21T04:57:00;86747.84;;;6.16;42.05
80682;BME280;70045;40.200;44.582;2024-02-21T04:59:25;86748.25;;;6.26;41.85
80682;BME280;70045;40.200;44.582;2024-02-21T05:01:50;86757.06;;;6.25;42.28
80682;BME280;70045;40.200;44.582;2024-02-21T05:04:21;86761.13;;;6.36;41.45
80682;BME280;70045;40.200;44.582;2024-02-21T05:06:46;86761.91;;;6.44;40.20
80682;BME280;70045;40.200;44.582;2024-02-21T05:09:12;86761.13;;;6.47;40.22
80682;BME280;70045;40.200;44.582;2024-02-21T05:11:37;86762.25;;;6.50;40.44
80682;BME280;70045;40.200;44.582;2024-02-21T05:14:03;86764.13;;;6.53;40.49
80682;BME280;70045;40.200;44.582;2024-02-21T05:16:39;86755.63;;;6.56;39.75
80682;BME280;70045;40.200;44.582;2024-02-21T05:19:04;86772.22;;;6.58;40.43
80682;BME280;70045;40.200;44.582;2024-02-21T05:21:29;86771.47;;;6.58;40.04
80682;BME280;70045;40.200;44.582;2024-02-21T05:23:55;86758.19;;;6.41;40.63
80682;BME280;70045;40.200;44.582;2024-02-21T05:26:24;86776.63;;;6.62;40.72
80682;BME280;70045;40.200;44.582;2024-02-21T05:29:00;86777.72;;;6.53;40.50
80682;BME280;70045;40.200;44.582;2024-02-21T05:31:26;86775.88;;;6.50;40.39
80682;BME280;70045;40.200;44.582;2024-02-21T05:34:07;86782.88;;;6.60;41.09
80682;BME280;70045;40.200;44.582;2024-02-21T05:36:32;86791.34;;;6.65;41.08
80682;BME280;70045;40.200;44.582;2024-02-21T05:38:58;86781.78;;;6.72;40.97
80682;BME280;70045;40.200;44.582;2024-02-21T05:41:32;86786.22;;;6.79;40.39
80682;BME280;70045;40.200;44.582;2024-02-21T05:43:58;86778.84;;;6.88;40.79
80682;BME280;70045;40.200;44.582;2024-02-21T05:46:23;86776.66;;;6.90;39.96
80682;BME280;70045;40.200;44.582;2024-02-21T05:48:49;86778.84;;;6.92;40.29
80682;BME280;70045;40.200;44.582;2024-02-21T05:51:14;86770.75;;;6.93;39.80
80682;BME280;70045;40.200;44.582;2024-02-21T05:53:43;86776.66;;;6.90;39.40
80682;BME280;70045;40.200;44.582;2024-02-21T05:56:12;86770.00;;;6.82;39.78
80682;BME280;70045;40.200;44.582;2024-02-21T05:58:38;86767.06;;;6.91;39.79
80682;BME280;70045;40.200;44.582;2024-02-21T06:01:03;86769.66;;;6.94;38.87
80682;BME280;70045;40.200;44.582;2024-02-21T06:03:29;86770.03;;;6.96;39.52
80682;BME280;70045;40.200;44.582;2024-02-21T06:06:05;86775.91;;;7.01;38.98
80682;BME280;70045;40.200;44.582;2024-02-21T06:08:31;86766.72;;;7.00;38.98
80682;BME280;70045;40.200;44.582;2024-02-21T06:10:56;86776.28;;;7.10;39.46
80682;BME280;70045;40.200;44.582;2024-02-21T06:13:23;86771.47;;;7.05;38.53
80682;BME280;70045;40.200;44.582;2024-02-21T06:15:49;86773.69;;;7.03;38.28
80682;BME280;70045;40.200;44.582;2024-02-21T06:18:18;86776.63;;;7.05;37.58
80682;BME280;70045;40.200;44.582;2024-02-21T06:20:44;86778.88;;;7.21;38.33
80682;BME280;70045;40.200;44.582;2024-02-21T06:23:09;86763.38;;;7.39;37.13
80682;BME280;70045;40.200;44.582;2024-02-21T06:25:35;86772.16;;;7.63;37.94
80682;BME280;70045;40.200;44.582;2024-02-21T06:28:01;86770.66;;;7.83;37.91
80682;BME280;70045;40.200;44.582;2024-02-21T06:30:31;86771.03;;;7.75;36.75
80682;BME280;70045;40.200;44.582;2024-02-21T06:32:56;86772.53;;;7.68;37.94
80682;BME280;70045;40.200;44.582;2024-02-21T06:35:22;86769.59;;;7.59;37.00
80682;BME280;70045;40.200;44.582;2024-02-21T06:37:47;86754.50;;;7.58;37.03
80682;BME280;70045;40.200;44.582;2024-02-21T06:40:13;86763.34;;;7.64;37.81
80682;BME280;70045;40.200;44.582;2024-02-21T06:42:48;86758.53;;;7.66;37.65
80682;BME280;70045;40.200;44.582;2024-02-21T06:45:13;86762.91;;;7.87;37.30
80682;BME280;70045;40.200;44.582;2024-02-21T06:47:39;86768.72;;;8.13;37.48
80682;BME280;70045;40.200;44.582;2024-02-21T06:50:04;86753.56;;;8.15;36.21
80682;BME280;70045;40.200;44.582;2024-02-21T06:52:30;86764.69;;;8.01;37.36
80682;BME280;70045;40.200;44.582;2024-02-21T06:55:05;86764.69;;;8.04;36.76
80682;BME280;70045;40.200;44.582;2024-02-21T06:57:31;86760.22;;;8.08;36.70
80682;BME280;70045;40.200;44.582;2024-02-21T06:59:56;86756.44;;;8.31;36.80
80682;BME280;70045;40.200;44.582;2024-02-21T07:02:22;86748.22;;;8.58;35.64
80682;BME280;70045;40.200;44.582;2024-02-21T07:04:47;86748.81;;;8.80;36.83
80682;BME280;70045;40.200;44.582;2024-02-21T07:07:22;86752.88;;;8.81;34.98
80682;BME280;70045;40.200;44.582;2024-02-21T07:09:48;86740.31;;;8.79;35.93
80682;BME280;70045;40.200;44.582;2024-02-21T07:12:13;86753.69;;;9.19;35.56
80682;BME280;70045;40.200;44.582;2024-02-21T07:14:39;86753.94;;;9.77;34.28
80682;BME280;70045;40.200;44.582;2024-02-21T07:17:04;86757.13;;;10.23;33.99
80682;BME280;70045;40.200;44.582;2024-02-21T07:19:33;86758.28;;;10.53;35.52
80682;BME280;70045;40.200;44.582;2024-02-21T07:21:58;86758.56;;;10.59;35.86
80682;BME280;70045;40.200;44.582;2024-02-21T07:24:23;86742.06;;;10.49;35.31
80682;BME280;70045;40.200;44.582;2024-02-21T07:26:49;86753.81;;;10.53;35.08
80682;BME280;70045;40.200;44.582;2024-02-21T07:29:14;86763.94;;;10.75;35.73
80682;BME280;70045;40.200;44.582;2024-02-21T07:31:49;86766.72;;;10.88;34.83
80682;BME280;70045;40.200;44.582;2024-02-21T07:34:15;86768.63;;;10.84;34.87
80682;BME280;70045;40.200;44.582;2024-02-21T07:36:40;86766.97;;;10.70;35.03
80682;BME280;70045;40.200;44.582;2024-02-21T07:39:06;86766.81;;;10.81;34.95
80682;BME280;70045;40.200;44.582;2024-02-21T07:41:31;86774.06;;;10.93;34.86
80682;BME280;70045;40.200;44.582;2024-02-21T07:44:06;86766.50;;;11.02;34.69
80682;BME280;70045;40.200;44.582;2024-02-21T07:46:32;86776.69;;;11.17;34.00
80682;BME280;70045;40.200;44.582;2024-02-21T07:48:57;86766.16;;;11.27;34.44
80682;BME280;70045;40.200;44.582;2024-02-21T07:51:27;86760.91;;;11.31;33.88
80682;BME280;70045;40.200;44.582;2024-02-21T07:53:53;86772.41;;;11.30;33.87
80682;BME280;70045;40.200;44.582;2024-02-21T07:56:22;86771.88;;;11.42;34.48
80682;BME280;70045;40.200;44.582;2024-02-21T07:58:47;86775.53;;;11.45;34.66
80682;BME280;70045;40.200;44.582;2024-02-21T08:01:18;86777.97;;;11.56;33.63
80682;BME280;70045;40.200;44.582;2024-02-21T08:03:44;86775.19;;;11.66;33.56
80682;BME280;70045;40.200;44.582;2024-02-21T08:06:13;86771.75;;;11.49;34.15
80682;BME280;70045;40.200;44.582;2024-02-21T08:08:47;86768.72;;;11.55;33.50
80682;BME280;70045;40.200;44.582;2024-02-21T08:11:13;86776.16;;;11.53;34.00
80682;BME280;70045;40.200;44.582;2024-02-21T08:13:38;86774.25;;;11.57;33.73
80682;BME280;70045;40.200;44.582;2024-02-21T08:16:04;86776.66;;;11.67;33.33
80682;BME280;70045;40.200;44.582;2024-02-21T08:18:29;86782.44;;;11.79;33.88
80682;BME280;70045;40.200;44.582;2024-02-21T08:20:58;86763.03;;;12.07;33.58
80682;BME280;70045;40.200;44.582;2024-02-21T08:23:24;86776.63;;;12.35;34.09
80682;BME280;70045;40.200;44.582;2024-02-21T08:25:49;86775.31;;;12.47;33.62
80682;BME280;70045;40.200;44.582;2024-02-21T08:28:15;86782.50;;;12.59;33.61
80682;BME280;70045;40.200;44.582;2024-02-21T08:30:40;86774.66;;;12.79;32.18
80682;BME280;70045;40.200;44.582;2024-02-21T08:33:11;86771.34;;;12.95;32.75
80682;BME280;70045;40.200;44.582;2024-02-21T08:35:36;86768.72;;;13.15;32.78
80682;BME280;70045;40.200;44.582;2024-02-21T08:38:02;86769.50;;;13.32;32.35
80682;BME280;70045;40.200;44.582;2024-02-21T08:40:27;86776.34;;;13.42;32.67
80682;BME280;70045;40.200;44.582;2024-02-21T08:42:53;86767.31;;;13.63;32.52
80682;BME280;70045;40.200;44.582;2024-02-21T08:45:28;86753.75;;;13.85;31.94
80682;BME280;70045;40.200;44.582;2024-02-21T08:47:54;86761.78;;;13.90;31.90
80682;BME280;70045;40.200;44.582;2024-02-21T08:50:19;86736.50;;;13.74;31.63
80682;BME280;70045;40.200;44.582;2024-02-21T08:52:44;86755.84;;;13.90;32.95
80682;BME280;70045;40.200;44.582;2024-02-21T08:55:10;86748.34;;;13.92;32.09
80682;BME280;70045;40.200;44.582;2024-02-21T08:57:39;86749.16;;;14.05;32.31
80682;BME280;70045;40.200;44.582;2024-02-21T09:00:05;86749.66;;;14.00;32.07
80682;BME280;70045;40.200;44.582;2024-02-21T09:02:31;86749.34;;;13.98;31.56
80682;BME280;70045;40.200;44.582;2024-02-21T09:04:56;86746.09;;;13.94;32.09
80682;BME280;70045;40.200;44.582;2024-02-21T09:07:21;86749.13;;;14.22;31.76
80682;BME280;70045;40.200;44.582;2024-02-21T09:09:57;86743.16;;;14.50;31.20
80682;BME280;70045;40.200;44.582;2024-02-21T09:12:22;86742.88;;;14.61;31.09
80682;BME280;70045;40.200;44.582;2024-02-21T09:14:48;86735.41;;;14.76;29.89
80682;BME280;70045;40.200;44.582;2024-02-21T09:17:13;86738.66;;;15.06;30.72
80682;BME280;70045;40.200;44.582;2024-02-21T09:19:39;86729.97;;;15.48;29.42
80682;BME280;70045;40.200;44.582;2024-02-21T09:22:08;86724.00;;;15.47;29.22
80682;BME280;70045;40.200;44.582;2024-02-21T09:24:34;86720.41;;;15.92;29.58
80682;BME280;70045;40.200;44.582;2024-02-21T09:26:59;86721.16;;;16.59;27.71
80682;BME280;70045;40.200;44.582;2024-02-21T09:29:24;86716.53;;;16.85;28.19
80682;BME280;70045;40.200;44.582;2024-02-21T09:31:50;86714.53;;;16.67;27.84
80682;BME280;70045;40.200;44.582;2024-02-21T09:34:24;86725.28;;;16.47;27.43
80682;BME280;70045;40.200;44.582;2024-02-21T09:36:50;86716.34;;;16.13;27.89
80682;BME280;70045;40.200;44.582;2024-02-21T09:39:15;86722.34;;;16.01;28.99
80682;BME280;70045;40.200;44.582;2024-02-21T09:41:45;86712.63;;;15.54;27.64
80682;BME280;70045;40.200;44.582;2024-02-21T09:44:13;86720.56;;;15.50;28.77
80682;BME280;70045;40.200;44.582;2024-02-21T09:47:28;86715.69;;;15.27;28.58
80682;BME280;70045;40.200;44.582;2024-02-21T09:49:32;86710.34;;;15.30;29.43
80682;BME280;70045;40.200;44.582;2024-02-21T09:52:00;86703.25;;;15.18;29.52
80682;BME280;70045;40.200;44.582;2024-02-21T09:54:28;86706.06;;;15.23;29.62
80682;BME280;70045;40.200;44.582;2024-02-21T09:57:04;86691.13;;;15.11;29.24
80682;BME280;70045;40.200;44.582;2024-02-21T09:59:32;86694.63;;;15.43;29.63
80682;BME280;70045;40.200;44.582;2024-02-21T10:01:59;86697.69;;;15.89;28.21
80682;BME280;70045;40.200;44.582;2024-02-21T10:04:24;86688.66;;;16.47;27.84
80682;BME280;70045;40.200;44.582;2024-02-21T10:06:50;86693.41;;;16.40;27.01
80682;BME280;70045;40.200;44.582;2024-02-21T10:09:26;86691.47;;;16.31;26.61
80682;BME280;70045;40.200;44.582;2024-02-21T10:11:52;86686.94;;;17.57;26.71
80682;BME280;70045;40.200;44.582;2024-02-21T10:14:17;86677.53;;;18.61;25.55
80682;BME280;70045;40.200;44.582;2024-02-21T10:16:43;86682.38;;;17.39;25.72
80682;BME280;70045;40.200;44.582;2024-02-21T10:19:18;86683.81;;;16.90;25.29
80682;BME280;70045;40.200;44.582;2024-02-21T10:22:03;86675.91;;;17.12;26.63
80682;BME280;70045;40.200;44.582;2024-02-21T10:24:30;86665.09;;;17.60;26.49
80682;BME280;70045;40.200;44.582;2024-02-21T10:27:06;86655.81;;;18.51;25.26
80682;BME280;70045;40.200;44.582;2024-02-21T10:29:32;86656.94;;;18.69;24.33
80682;BME280;70045;40.200;44.582;2024-02-21T10:32:12;86661.34;;;18.35;25.62
80682;BME280;70045;40.200;44.582;2024-02-21T10:34:40;86662.38;;;17.73;24.81
80682;BME280;70045;40.200;44.582;2024-02-21T10:37:09;86669.94;;;17.11;25.60
80682;BME280;70045;40.200;44.582;2024-02-21T10:39:38;86677.28;;;16.63;25.94
80682;BME280;70045;40.200;44.582;2024-02-21T10:42:17;86675.78;;;16.31;24.72
80682;BME280;70045;40.200;44.582;2024-02-21T10:44:50;86668.84;;;16.15;26.51
80682;BME280;70045;40.200;44.582;2024-02-21T10:47:16;86675.31;;;15.88;25.54
80682;BME280;70045;40.200;44.582;2024-02-21T10:49:44;86675.66;;;15.90;27.09
80682;BME280;70045;40.200;44.582;2024-02-21T10:55:20;86667.81;;;15.77;27.12
80682;BME280;70045;40.200;44.582;2024-02-21T10:57:46;86653.34;;;15.51;28.24
80682;BME280;70045;40.200;44.582;2024-02-21T11:00:14;86658.41;;;15.32;27.72
80682;BME280;70045;40.200;44.582;2024-02-21T11:02:52;86660.75;;;14.92;27.02
80682;BME280;70045;40.200;44.582;2024-02-21T11:05:17;86653.50;;;14.44;27.35
80682;BME280;70045;40.200;44.582;2024-02-21T11:07:43;86638.19;;;14.04;28.28
80682;BME280;70045;40.200;44.582;2024-02-21T11:10:29;86658.00;;;13.72;27.81
80682;BME280;70045;40.200;44.582;2024-02-21T11:13:08;86654.19;;;13.77;28.52
80682;BME280;70045;40.200;44.582;2024-02-21T11:15:34;86644.44;;;13.65;28.04
80682;BME280;70045;40.200;44.582;2024-02-21T11:17:59;86653.19;;;13.25;27.68
80682;BME280;70045;40.200;44.582;2024-02-21T11:20:35;86649.69;;;13.15;27.27
80682;BME280;70045;40.200;44.582;2024-02-21T11:23:01;86642.16;;;13.05;28.23
80682;BME280;70045;40.200;44.582;2024-02-21T11:25:36;86639.56;;;12.88;28.00
80682;BME280;70045;40.200;44.582;2024-02-21T11:28:05;86632.88;;;12.71;28.04
80682;BME280;70045;40.200;44.582;2024-02-21T11:30:31;86629.22;;;12.68;28.59
80682;BME280;70045;40.200;44.582;2024-02-21T11:33:01;86637.59;;;12.92;28.38
80682;BME280;70045;40.200;44.582;2024-02-21T11:35:26;86635.16;;;12.85;29.04
80682;BME280;70045;40.200;44.582;2024-02-21T11:38:13;86633.28;;;12.86;29.13
80682;BME280;70045;40.200;44.582;2024-02-21T11:40:39;86626.13;;;13.06;28.86
80682;BME280;70045;40.200;44.582;2024-02-21T11:43:04;86630.59;;;13.39;26.19
80682;BME280;70045;40.200;44.582;2024-02-21T11:45:29;86627.94;;;13.55;26.01
80682;BME280;70045;40.200;44.582;2024-02-21T11:47:55;86637.91;;;13.73;24.80
80682;BME280;70045;40.200;44.582;2024-02-21T11:50:23;86624.25;;;13.69;24.37
80682;BME280;70045;40.200;44.582;2024-02-21T11:52:49;86626.94;;;13.65;24.99
80682;BME280;70045;40.200;44.582;2024-02-21T11:55:14;86626.13;;;13.68;24.98
80682;BME280;70045;40.200;44.582;2024-02-21T11:57:40;86622.13;;;13.93;24.49
80682;BME280;70045;40.200;44.582;2024-02-21T12:00:15;86620.25;;;13.35;24.34
80682;BME280;70045;40.200;44.582;2024-02-21T12:02:45;86616.66;;;13.29;24.35
80682;BME280;70045;40.200;44.582;2024-02-21T12:05:10;86616.31;;;13.72;25.90
80682;BME280;70045;40.200;44.582;2024-02-21T12:07:39;86620.03;;;14.01;25.73
80682;BME280;70045;40.200;44.582;2024-02-21T12:10:09;86629.13;;;14.09;25.71
80682;BME280;70045;40.200;44.582;2024-02-21T12:12:35;86629.84;;;13.97;24.33
80682;BME280;70045;40.200;44.582;2024-02-21T12:15:04;86627.53;;;13.86;25.45
80682;BME280;70045;40.200;44.582;2024-02-21T12:17:32;86632.16;;;13.65;25.32
80682;BME280;70045;40.200;44.582;2024-02-21T12:19:58;86631.25;;;13.72;25.65
80682;BME280;70045;40.200;44.582;2024-02-21T12:22:25;86628.94;;;13.74;26.08
80682;BME280;70045;40.200;44.582;2024-02-21T12:24:50;86629.31;;;13.60;24.67
80682;BME280;70045;40.200;44.582;2024-02-21T12:27:19;86636.63;;;13.35;24.98
80682;BME280;70045;40.200;44.582;2024-02-21T12:29:44;86630.91;;;13.24;25.44
80682;BME280;70045;40.200;44.582;2024-02-21T12:32:09;86632.22;;;13.16;25.10
80682;BME280;70045;40.200;44.582;2024-02-21T12:34:35;86636.28;;;13.33;25.95
80682;BME280;70045;40.200;44.582;2024-02-21T12:37:01;86633.44;;;13.73;25.07
80682;BME280;70045;40.200;44.582;2024-02-21T12:39:30;86626.81;;;14.79;23.07
80682;BME280;70045;40.200;44.582;2024-02-21T12:41:55;86624.38;;;15.10;24.53
80682;BME280;70045;40.200;44.582;2024-02-21T12:44:21;86626.09;;;16.71;22.94
80682;BME280;70045;40.200;44.582;2024-02-21T12:46:46;86620.50;;;17.32;21.99
80682;BME280;70045;40.200;44.582;2024-02-21T12:49:12;86611.41;;;19.48;18.41
80682;BME280;70045;40.200;44.582;2024-02-21T12:51:40;86605.22;;;21.33;17.70
80682;BME280;70045;40.200;44.582;2024-02-21T12:54:06;86611.22;;;21.34;17.67
80682;BME280;70045;40.200;44.582;2024-02-21T12:56:31;86605.69;;;22.55;15.81
80682;BME280;70045;40.200;44.582;2024-02-21T12:58:57;86603.56;;;22.85;17.51
80682;BME280;70045;40.200;44.582;2024-02-21T13:01:23;86600.00;;;22.62;16.88
80682;BME280;70045;40.200;44.582;2024-02-21T13:03:52;86598.56;;;21.94;17.95